createdAt,value
2019-02-09T00:00:36.662Z,20.37
2019-02-09T00:03:07.599Z,22.10
2019-02-09T00:05:37.261Z,22.73
2019-02-09T00:08:09.258Z,24.30
2019-02-09T00:10:39.442Z,21.80
2019-02-09T00:13:09.156Z,24.92
2019-02-09T00:15:41.449Z,22.55
2019-02-09T00:18:10.699Z,26.82
2019-02-09T00:20:39.837Z,27.45
2019-02-09T00:23:12.401Z,26.02
2019-02-09T00:25:42.295Z,21.93
2019-02-09T00:28:13.583Z,24.52
2019-02-09T00:30:43.186Z,25.90
2019-02-09T00:33:13.867Z,24.43
2019-02-09T00:35:45.213Z,25.80
2019-02-09T00:38:16.086Z,21.62
2019-02-09T00:40:45.214Z,32.90
2019-02-09T00:43:14.455Z,35.85
2019-02-09T00:45:45.809Z,31.68
2019-02-09T00:48:15.129Z,33.70
2019-02-09T00:50:44.253Z,20.92
2019-02-09T00:53:13.369Z,24.30
2019-02-09T00:55:43.623Z,23.47
2019-02-09T00:58:13.024Z,32.45
2019-02-09T01:00:42.767Z,31.52
2019-02-09T01:03:11.898Z,35.43
2019-02-09T01:05:44.004Z,25.77
2019-02-09T01:08:13.397Z,68.52
2019-02-09T01:10:43.138Z,29.35
2019-02-09T01:13:12.326Z,26.05
2019-02-09T01:15:41.603Z,23.80
2019-02-09T01:18:10.924Z,36.33
2019-02-09T01:20:40.204Z,26.73
2019-02-09T01:23:09.465Z,23.27
2019-02-09T01:25:39.768Z,26.70
2019-02-09T01:28:13.223Z,32.73
2019-02-09T01:30:42.419Z,26.68
2019-02-09T01:33:11.969Z,23.85
2019-02-09T01:35:41.904Z,23.65
2019-02-09T01:38:13.897Z,25.02
2019-02-09T01:40:49.184Z,25.57
2019-02-09T01:46:08.472Z,24.30
2019-02-09T01:48:38.457Z,23.00
2019-02-09T01:51:12.750Z,27.15
2019-02-09T01:53:42.849Z,23.70
2019-02-09T01:56:18.530Z,23.38
2019-02-09T01:58:49.749Z,22.70
2019-02-09T02:04:13.520Z,24.70
2019-02-09T02:06:42.037Z,24.52
2019-02-09T02:09:11.470Z,24.90
2019-02-09T02:11:43.463Z,20.72
2019-02-09T02:14:14.349Z,23.57
2019-02-09T02:16:43.609Z,20.15
2019-02-09T02:19:14.276Z,22.95
2019-02-09T02:21:43.765Z,25.00
2019-02-09T02:24:19.518Z,22.40
2019-02-09T02:26:49.357Z,25.97
2019-02-09T02:29:20.246Z,27.87
2019-02-09T02:31:54.243Z,28.00
2019-02-09T02:34:23.087Z,29.45
2019-02-09T02:36:53.523Z,28.38
2019-02-09T02:39:22.387Z,28.07
2019-02-09T02:41:52.475Z,27.45
2019-02-09T02:47:11.034Z,32.50
2019-02-09T02:49:41.935Z,30.37
2019-02-09T02:52:14.181Z,32.50
2019-02-09T02:54:47.802Z,29.57
2019-02-09T02:57:17.054Z,35.50
2019-02-09T02:59:47.081Z,31.73
2019-02-09T03:02:25.982Z,29.23
2019-02-09T03:04:58.173Z,30.70
2019-02-09T03:07:28.208Z,32.20
2019-02-09T03:09:59.198Z,32.80
2019-02-09T03:12:28.788Z,36.40
2019-02-09T03:14:58.953Z,34.73
2019-02-09T03:17:28.231Z,27.30
2019-02-09T03:19:57.590Z,28.75
2019-02-09T03:22:28.124Z,33.00
2019-02-09T03:25:01.219Z,25.65
2019-02-09T03:27:29.710Z,23.18
2019-02-09T03:29:58.477Z,33.60
2019-02-09T03:32:36.649Z,28.80
2019-02-09T03:35:08.167Z,27.87
2019-02-09T03:37:40.098Z,31.50
2019-02-09T03:40:12.023Z,20.17
2019-02-09T03:42:42.303Z,19.75
2019-02-09T03:45:23.244Z,13.55
2019-02-09T03:47:53.384Z,17.02
2019-02-09T03:50:26.887Z,13.50
2019-02-09T03:52:56.492Z,17.02
2019-02-09T03:55:35.263Z,14.30
2019-02-09T03:58:04.814Z,11.85
2019-02-09T04:00:37.288Z,12.73
2019-02-09T04:03:09.843Z,15.48
2019-02-09T04:05:39.375Z,16.05
2019-02-09T04:08:08.053Z,18.60
2019-02-09T04:10:37.621Z,11.20
2019-02-09T04:13:06.578Z,11.38
2019-02-09T04:15:35.443Z,14.03
2019-02-09T04:18:04.581Z,15.85
2019-02-09T04:20:33.800Z,13.65
2019-02-09T04:23:04.076Z,14.83
2019-02-09T04:25:33.118Z,16.15
2019-02-09T04:28:02.599Z,15.28
2019-02-09T04:30:33.609Z,9.40
2019-02-09T04:33:02.627Z,16.73
2019-02-09T04:35:31.788Z,16.70
2019-02-09T04:38:01.015Z,15.00
2019-02-09T04:40:32.130Z,19.75
2019-02-09T04:43:01.655Z,13.43
2019-02-09T04:45:31.223Z,18.42
2019-02-09T04:48:00.017Z,21.68
2019-02-09T04:50:28.826Z,12.60
2019-02-09T04:52:57.594Z,14.00
2019-02-09T04:55:27.187Z,20.50
2019-02-09T04:57:56.295Z,43.78
2019-02-09T05:00:26.608Z,20.65
2019-02-09T05:02:55.386Z,19.05
2019-02-09T05:05:24.294Z,25.05
2019-02-09T05:07:53.370Z,31.27
2019-02-09T05:10:24.892Z,16.37
2019-02-09T05:12:54.054Z,33.80
2019-02-09T05:15:23.122Z,23.75
2019-02-09T05:17:52.449Z,28.90
2019-02-09T05:20:24.770Z,33.20
2019-02-09T05:22:54.481Z,18.30
2019-02-09T05:25:23.313Z,17.32
2019-02-09T05:27:52.612Z,17.52
2019-02-09T05:30:24.948Z,11.50
2019-02-09T05:32:54.018Z,15.88
2019-02-09T05:35:23.906Z,11.38
2019-02-09T05:37:53.691Z,24.47
2019-02-09T05:40:24.792Z,17.85
2019-02-09T05:42:54.457Z,16.70
2019-02-09T05:45:27.991Z,18.07
2019-02-09T05:47:56.878Z,12.07
2019-02-09T05:50:26.099Z,14.53
2019-02-09T05:52:55.217Z,13.83
2019-02-09T05:55:24.166Z,14.10
2019-02-09T05:57:53.089Z,18.07
2019-02-09T06:00:34.411Z,18.77
2019-02-09T06:03:03.691Z,12.07
2019-02-09T06:05:32.323Z,17.92
2019-02-09T06:08:01.090Z,12.70
2019-02-09T06:10:29.837Z,19.23
2019-02-09T06:12:59.011Z,21.02
2019-02-09T06:15:29.301Z,18.95
2019-02-09T06:17:59.011Z,18.48
2019-02-09T06:20:30.833Z,15.32
2019-02-09T06:22:59.891Z,15.35
2019-02-09T06:25:28.554Z,12.60
2019-02-09T06:27:57.511Z,21.23
2019-02-09T06:30:28.936Z,23.25
2019-02-09T06:32:57.989Z,12.13
2019-02-09T06:35:27.242Z,19.05
2019-02-09T06:37:56.660Z,9.78
2019-02-09T06:40:25.803Z,12.70
2019-02-09T06:42:54.942Z,9.00
2019-02-09T06:45:26.237Z,12.75
2019-02-09T06:48:16.534Z,12.18
2019-02-09T06:50:45.667Z,7.47
2019-02-09T06:53:14.976Z,11.78
2019-02-09T06:55:44.494Z,7.33
2019-02-09T06:58:13.767Z,9.50
2019-02-09T07:00:43.151Z,12.28
2019-02-09T07:03:12.367Z,12.25
2019-02-09T07:05:41.665Z,8.75
2019-02-09T07:08:11.926Z,5.90
2019-02-09T07:10:42.067Z,8.53
2019-02-09T07:13:11.277Z,15.03
2019-02-09T07:15:41.056Z,5.58
2019-02-09T07:18:10.293Z,5.00
2019-02-09T07:20:39.906Z,6.47
2019-02-09T07:23:09.214Z,8.38
2019-02-09T07:25:38.404Z,8.78
2019-02-09T07:28:07.686Z,7.70
2019-02-09T07:30:37.276Z,6.50
2019-02-09T07:33:07.989Z,8.00
2019-02-09T07:35:37.442Z,8.83
2019-02-09T07:38:06.504Z,7.58
2019-02-09T07:40:35.618Z,7.35
2019-02-09T07:43:04.882Z,7.47
2019-02-09T07:45:35.111Z,3.80
2019-02-09T07:48:04.936Z,4.30
2019-02-09T07:50:33.825Z,3.70
2019-02-09T07:53:02.619Z,4.40
2019-02-09T07:55:31.488Z,4.78
2019-02-09T07:58:00.238Z,3.75
2019-02-09T08:00:33.253Z,4.00
2019-02-09T08:03:02.415Z,3.40
2019-02-09T08:05:32.499Z,5.47
2019-02-09T08:08:01.797Z,3.50
2019-02-09T08:10:37.056Z,3.50
2019-02-09T08:13:09.612Z,3.17
2019-02-09T08:15:38.947Z,5.70
2019-02-09T08:18:08.826Z,4.60
2019-02-09T08:20:38.228Z,2.77
2019-02-09T08:23:12.306Z,4.62
2019-02-09T08:25:42.260Z,3.55
2019-02-09T08:28:12.726Z,2.60
2019-02-09T08:30:44.427Z,3.85
2019-02-09T08:33:13.756Z,2.60
2019-02-09T08:35:43.954Z,2.87
2019-02-09T08:38:14.735Z,2.77
2019-02-09T08:40:43.584Z,2.52
2019-02-09T08:43:12.543Z,2.85
2019-02-09T08:45:41.897Z,2.65
2019-02-09T08:48:11.199Z,2.30
2019-02-09T08:50:42.935Z,5.35
2019-02-09T08:53:12.308Z,2.33
2019-02-09T08:55:41.917Z,2.58
2019-02-09T08:58:11.142Z,2.95
2019-02-09T09:00:40.784Z,3.30
2019-02-09T09:03:10.043Z,3.00
2019-02-09T09:05:39.417Z,3.70
2019-02-09T09:08:08.676Z,3.05
2019-02-09T09:10:38.880Z,6.70
2019-02-09T09:13:08.187Z,5.58
2019-02-09T09:15:39.827Z,4.70
2019-02-09T09:18:09.027Z,3.37
2019-02-09T09:20:47.539Z,6.58
2019-02-09T09:23:16.817Z,2.72
2019-02-09T09:25:46.193Z,5.83
2019-02-09T09:28:15.269Z,2.55
2019-02-09T09:30:44.428Z,4.25
2019-02-09T09:33:13.734Z,2.37
2019-02-09T09:35:44.505Z,2.65
2019-02-09T09:38:13.974Z,3.00
2019-02-09T09:40:44.749Z,3.30
2019-02-09T09:43:14.259Z,21.25
2019-02-09T09:45:44.329Z,20.10
2019-02-09T09:48:18.621Z,25.70
2019-02-09T09:50:47.948Z,24.40
2019-02-09T09:53:17.162Z,22.73
2019-02-09T09:55:46.664Z,27.75
2019-02-09T09:58:16.857Z,32.35
2019-02-09T10:00:46.040Z,32.98
2019-02-09T10:03:14.904Z,39.05
2019-02-09T10:05:43.658Z,41.08
2019-02-09T10:08:12.529Z,32.85
2019-02-09T10:10:42.088Z,38.30
2019-02-09T10:13:11.565Z,29.35
2019-02-09T10:15:40.832Z,33.10
2019-02-09T10:18:10.283Z,33.63
2019-02-09T10:20:39.286Z,36.28
2019-02-09T10:23:08.532Z,36.45
2019-02-09T10:25:37.958Z,39.08
2019-02-09T10:28:07.003Z,41.18
2019-02-09T10:30:36.582Z,36.88
2019-02-09T10:33:05.948Z,38.78
2019-02-09T10:35:35.371Z,39.67
2019-02-09T10:38:04.619Z,40.85
2019-02-09T10:40:35.480Z,37.28
2019-02-09T10:43:06.350Z,44.35
2019-02-09T10:45:35.763Z,41.35
2019-02-09T10:48:06.838Z,43.90
2019-02-09T10:50:41.513Z,35.05
2019-02-09T10:53:11.425Z,38.63
2019-02-09T10:55:40.180Z,43.63
2019-02-09T10:58:11.127Z,42.23
2019-02-09T11:00:45.744Z,40.85
2019-02-09T11:03:15.137Z,36.25
2019-02-09T11:05:44.626Z,49.18
2019-02-09T11:08:15.012Z,45.17
2019-02-09T11:10:44.435Z,49.58
2019-02-09T11:13:13.909Z,51.65
2019-02-09T11:15:43.304Z,48.30
2019-02-09T11:18:12.650Z,47.08
2019-02-09T11:20:42.068Z,47.80
2019-02-09T11:23:11.508Z,44.95
2019-02-09T11:25:41.822Z,44.18
2019-02-09T11:28:11.017Z,43.33
2019-02-09T11:30:40.447Z,43.15
2019-02-09T11:33:10.996Z,48.50
2019-02-09T11:35:39.745Z,42.83
2019-02-09T11:38:08.609Z,48.40
2019-02-09T11:40:38.228Z,39.60
2019-02-09T11:43:08.706Z,41.42
2019-02-09T11:45:38.247Z,40.50
2019-02-09T11:48:08.248Z,38.83
2019-02-09T11:50:37.684Z,45.40
2019-02-09T11:53:07.810Z,39.00
2019-02-09T11:55:36.995Z,37.78
2019-02-09T11:58:06.123Z,40.08
2019-02-09T12:00:46.743Z,39.50
2019-02-09T12:03:16.338Z,42.62
2019-02-09T12:05:45.793Z,41.08
2019-02-09T12:08:14.926Z,44.30
2019-02-09T12:10:44.344Z,47.25
2019-02-09T12:13:14.488Z,42.23
2019-02-09T12:15:43.686Z,36.35
2019-02-09T12:18:14.213Z,36.25
2019-02-09T12:20:42.946Z,38.35
2019-02-09T12:23:11.813Z,33.73
2019-02-09T12:25:41.319Z,36.70
2019-02-09T12:28:13.844Z,35.92
2019-02-09T12:30:43.226Z,40.98
2019-02-09T12:33:13.128Z,43.55
2019-02-09T12:35:43.801Z,44.77
2019-02-09T12:38:13.176Z,36.88
2019-02-09T12:40:42.513Z,39.40
2019-02-09T12:43:12.649Z,29.42
2019-02-09T12:45:42.025Z,41.40
2019-02-09T12:48:12.002Z,34.98
2019-02-09T12:50:41.304Z,35.98
2019-02-09T12:53:11.589Z,38.33
2019-02-09T12:55:40.629Z,31.45
2019-02-09T12:58:10.225Z,40.30
2019-02-09T13:00:39.921Z,37.85
2019-02-09T13:03:17.251Z,38.53
2019-02-09T13:05:46.005Z,36.70
2019-02-09T13:08:14.720Z,40.38
2019-02-09T13:10:44.125Z,37.75
2019-02-09T13:13:13.511Z,30.08
2019-02-09T13:15:43.063Z,34.18
2019-02-09T13:18:12.903Z,38.05
2019-02-09T13:20:42.773Z,33.53
2019-02-09T13:23:13.062Z,38.35
2019-02-09T13:25:42.127Z,37.60
2019-02-09T13:28:11.207Z,32.17
2019-02-09T13:30:41.484Z,33.90
2019-02-09T13:33:10.846Z,29.18
2019-02-09T13:35:39.881Z,30.65
2019-02-09T13:38:08.938Z,28.40
2019-02-09T13:40:38.151Z,33.33
2019-02-09T13:43:07.414Z,31.73
2019-02-09T13:45:45.234Z,32.48
2019-02-09T13:48:14.077Z,33.02
2019-02-09T13:50:44.065Z,34.33
2019-02-09T13:53:13.455Z,31.95
2019-02-09T13:55:42.941Z,29.82
2019-02-09T13:58:12.789Z,30.30
2019-02-09T14:00:42.082Z,23.27
2019-02-09T14:03:11.236Z,30.82
2019-02-09T14:05:40.264Z,25.80
2019-02-09T14:08:09.683Z,27.58
2019-02-09T14:10:39.351Z,19.90
2019-02-09T14:13:14.238Z,22.17
2019-02-09T14:15:39.693Z,22.20
2019-02-09T14:18:10.272Z,23.60
2019-02-09T14:20:39.398Z,23.85
2019-02-09T14:23:09.080Z,19.05
2019-02-09T14:25:38.321Z,23.10
2019-02-09T14:28:07.900Z,22.07
2019-02-09T14:30:37.919Z,25.90
2019-02-09T14:33:11.890Z,22.52
2019-02-09T14:35:41.781Z,26.20
2019-02-09T14:38:10.701Z,22.82
2019-02-09T14:40:39.731Z,26.33
2019-02-09T14:43:09.071Z,22.48
2019-02-09T14:45:39.524Z,18.12
2019-02-09T14:48:08.851Z,22.93
2019-02-09T14:50:38.900Z,21.62
2019-02-09T14:53:08.595Z,22.35
2019-02-09T14:55:38.798Z,22.60
2019-02-09T14:58:09.152Z,17.90
2019-02-09T15:00:49.499Z,18.15
2019-02-09T15:03:26.122Z,17.80
2019-02-09T15:05:49.651Z,19.02
2019-02-09T15:08:18.981Z,18.55
2019-02-09T15:10:48.182Z,16.12
2019-02-09T15:13:18.161Z,20.60
2019-02-09T15:16:05.082Z,17.55
2019-02-09T15:18:34.364Z,20.55
2019-02-09T15:21:08.587Z,19.42
2019-02-09T15:23:37.661Z,16.50
2019-02-09T15:26:06.959Z,20.62
2019-02-09T15:28:36.160Z,17.80
2019-02-09T15:31:05.528Z,17.50
2019-02-09T15:33:34.944Z,15.40
2019-02-09T15:36:04.440Z,13.80
2019-02-09T15:38:33.798Z,18.17
2019-02-09T15:41:03.189Z,16.17
2019-02-09T15:43:32.615Z,16.62
2019-02-09T15:46:01.786Z,17.80
2019-02-09T15:48:31.088Z,14.60
2019-02-09T15:51:00.690Z,17.20
2019-02-09T15:53:29.834Z,16.10
2019-02-09T15:55:59.176Z,14.68
2019-02-09T15:58:28.518Z,14.47
2019-02-09T16:00:57.165Z,16.65
2019-02-09T16:03:26.793Z,15.50
2019-02-09T16:05:55.435Z,12.25
2019-02-09T16:08:24.668Z,15.05
2019-02-09T16:10:53.868Z,26.05
2019-02-09T16:13:24.052Z,17.65
2019-02-09T16:15:52.971Z,15.98
2019-02-09T16:18:21.765Z,12.58
2019-02-09T16:20:51.776Z,14.05
2019-02-09T16:23:21.111Z,14.98
2019-02-09T16:25:50.380Z,15.43
2019-02-09T16:28:19.746Z,12.88
2019-02-09T16:30:49.200Z,12.37
2019-02-09T16:33:18.381Z,12.13
2019-02-09T16:35:47.667Z,15.08
2019-02-09T16:38:16.773Z,9.55
2019-02-09T16:40:46.030Z,12.20
2019-02-09T16:43:14.734Z,12.33
2019-02-09T16:45:44.155Z,14.83
2019-02-09T16:48:13.575Z,21.40
2019-02-09T16:50:42.359Z,15.28
2019-02-09T16:53:12.031Z,11.73
2019-02-09T16:55:41.259Z,12.53
2019-02-09T16:58:10.551Z,14.68
2019-02-09T17:00:41.355Z,13.60
2019-02-09T17:03:13.404Z,15.55
2019-02-09T17:05:43.454Z,12.40
2019-02-09T17:08:12.332Z,11.50
2019-02-09T17:10:41.501Z,13.60
2019-02-09T17:13:10.627Z,9.95
2019-02-09T17:15:39.872Z,9.28
2019-02-09T17:18:10.499Z,13.90
2019-02-09T17:20:39.563Z,10.20
2019-02-09T17:23:08.659Z,10.20
2019-02-09T17:25:37.725Z,8.03
2019-02-09T17:28:07.364Z,9.45
2019-02-09T17:30:38.432Z,9.40
2019-02-09T17:33:08.085Z,8.90
2019-02-09T17:35:37.601Z,9.15
2019-02-09T17:38:08.170Z,9.03
2019-02-09T17:40:39.500Z,8.05
2019-02-09T17:43:08.800Z,6.85
2019-02-09T17:45:49.113Z,6.53
2019-02-09T17:48:18.258Z,7.47
2019-02-09T17:50:47.308Z,6.15
2019-02-09T17:53:16.952Z,5.83
2019-02-09T17:55:46.275Z,6.22
2019-02-09T17:58:16.800Z,8.08
2019-02-09T18:00:48.598Z,4.50
2019-02-09T18:03:17.842Z,4.47
2019-02-09T18:05:47.400Z,4.67
2019-02-09T18:08:17.069Z,7.20
2019-02-09T18:10:45.808Z,5.53
2019-02-09T18:13:14.455Z,4.50
2019-02-09T18:15:43.309Z,3.40
2019-02-09T18:18:12.162Z,5.67
2019-02-09T18:20:41.557Z,4.50
2019-02-09T18:23:10.819Z,5.10
2019-02-09T18:25:40.101Z,3.95
2019-02-09T18:28:09.442Z,3.77
2019-02-09T18:30:38.748Z,5.03
2019-02-09T18:33:08.086Z,5.85
2019-02-09T18:35:37.168Z,8.70
2019-02-09T18:38:06.417Z,5.42
2019-02-09T18:40:35.915Z,6.60
2019-02-09T18:43:05.084Z,7.28
2019-02-09T18:45:34.718Z,6.15
2019-02-09T18:48:04.051Z,8.10
2019-02-09T18:50:34.257Z,5.05
2019-02-09T18:53:03.609Z,5.12
2019-02-09T18:55:33.189Z,11.25
2019-02-09T18:58:02.670Z,3.90
2019-02-09T19:00:33.648Z,4.78
2019-02-09T19:03:03.364Z,3.60
2019-02-09T19:05:32.540Z,4.22
2019-02-09T19:08:01.673Z,3.50
2019-02-09T19:10:31.079Z,4.53
2019-02-09T19:13:00.663Z,4.95
2019-02-09T19:15:29.979Z,4.35
2019-02-09T19:17:59.733Z,3.50
2019-02-09T19:20:42.891Z,6.78
2019-02-09T19:23:15.429Z,4.08
2019-02-09T19:25:44.429Z,4.85
2019-02-09T19:28:14.002Z,4.15
2019-02-09T19:30:43.164Z,7.75
2019-02-09T19:33:12.571Z,5.03
2019-02-09T19:35:45.382Z,5.87
2019-02-09T19:38:14.999Z,3.90
2019-02-09T19:40:44.324Z,2.33
2019-02-09T19:43:13.760Z,3.52
2019-02-09T19:45:43.182Z,3.45
2019-02-09T19:48:11.933Z,2.95
2019-02-09T19:50:42.070Z,2.42
2019-02-09T19:53:13.913Z,3.50
2019-02-09T19:55:42.811Z,2.58
2019-02-09T19:58:11.966Z,3.95
2019-02-09T20:00:44.354Z,3.67
2019-02-09T20:03:13.663Z,3.30
2019-02-09T20:05:43.094Z,2.83
2019-02-09T20:08:12.280Z,2.37
2019-02-09T20:10:43.585Z,3.02
2019-02-09T20:13:16.481Z,2.20
2019-02-09T20:15:46.153Z,4.42
2019-02-09T20:18:15.542Z,2.30
2019-02-09T20:20:47.262Z,4.67
2019-02-09T20:23:14.798Z,5.12
2019-02-09T20:25:44.451Z,3.12
2019-02-09T20:28:13.259Z,3.20
2019-02-09T20:30:43.128Z,3.17
2019-02-09T20:33:12.418Z,3.80
2019-02-09T20:35:42.366Z,2.85
2019-02-09T20:38:11.684Z,2.35
2019-02-09T20:40:43.020Z,2.90
2019-02-09T20:43:15.062Z,4.53
2019-02-09T20:45:44.479Z,2.90
2019-02-09T20:48:14.042Z,3.15
2019-02-09T20:50:43.501Z,2.47
2019-02-09T20:53:12.641Z,3.40
2019-02-09T20:55:42.260Z,2.10
2019-02-09T20:58:12.207Z,2.37
2019-02-09T21:00:41.574Z,2.25
2019-02-09T21:03:10.715Z,2.67
2019-02-09T21:05:40.109Z,3.37
2019-02-09T21:08:09.479Z,2.25
2019-02-09T21:10:40.404Z,7.83
2019-02-09T21:13:09.262Z,3.40
2019-02-09T21:15:38.116Z,5.65
2019-02-09T21:18:07.474Z,3.55
2019-02-09T21:20:36.736Z,3.35
2019-02-09T21:23:06.306Z,6.40
2019-02-09T21:25:47.096Z,2.35
2019-02-09T21:28:16.472Z,2.85
2019-02-09T21:30:45.854Z,3.08
2019-02-09T21:33:15.203Z,5.22
2019-02-09T21:35:44.542Z,2.20
2019-02-09T21:38:13.962Z,2.27
2019-02-09T21:40:43.747Z,2.80
2019-02-09T21:43:12.803Z,3.75
2019-02-09T21:45:45.409Z,2.95
2019-02-09T21:48:14.156Z,3.27
2019-02-09T21:50:43.368Z,4.78
2019-02-09T21:53:13.476Z,4.75
2019-02-09T21:55:42.253Z,3.08
2019-02-09T21:58:11.425Z,2.65
2019-02-09T22:00:44.675Z,8.03
2019-02-09T22:03:14.587Z,4.35
2019-02-09T22:05:51.523Z,2.20
2019-02-09T22:08:19.542Z,2.15
2019-02-09T22:10:47.186Z,2.60
2019-02-09T22:13:17.579Z,4.35
2019-02-09T22:15:47.215Z,3.27
2019-02-09T22:18:16.427Z,3.77
2019-02-09T22:20:52.541Z,3.12
2019-02-09T22:23:17.204Z,5.95
2019-02-09T22:25:46.445Z,3.27
2019-02-09T22:28:17.221Z,3.35
2019-02-09T22:30:46.435Z,3.27
2019-02-09T22:33:24.043Z,3.75
2019-02-09T22:35:46.227Z,1.70
2019-02-09T22:38:16.290Z,4.05
2019-02-09T22:40:44.934Z,2.87
2019-02-09T22:43:14.395Z,4.35
2019-02-09T22:45:43.162Z,8.10
2019-02-09T22:48:12.603Z,1.98
2019-02-09T22:50:48.173Z,2.90
2019-02-09T22:53:17.337Z,4.20
2019-02-09T22:55:46.705Z,3.75
2019-02-09T22:58:16.103Z,3.10
2019-02-09T23:01:04.776Z,3.87
2019-02-09T23:03:46.189Z,2.27
2019-02-09T23:06:24.780Z,3.62
2019-02-09T23:08:55.423Z,2.40
2019-02-09T23:11:26.096Z,3.75
2019-02-09T23:13:55.030Z,4.85
2019-02-09T23:16:24.673Z,3.72
2019-02-09T23:18:53.834Z,4.05
2019-02-09T23:21:23.123Z,3.55
2019-02-09T23:23:52.240Z,6.90
2019-02-09T23:26:21.206Z,3.47
2019-02-09T23:28:50.505Z,2.17
2019-02-09T23:31:19.997Z,4.47
2019-02-09T23:33:50.371Z,8.28
2019-02-09T23:36:19.957Z,2.40
2019-02-09T23:38:49.364Z,5.03
2019-02-09T23:41:18.648Z,4.37
2019-02-09T23:43:47.981Z,3.20
2019-02-09T23:46:17.478Z,3.90
2019-02-09T23:48:47.166Z,2.58
2019-02-09T23:51:16.875Z,4.30
2019-02-09T23:53:46.113Z,3.72
2019-02-09T23:56:15.535Z,4.00
2019-02-09T23:58:44.587Z,3.20
